sim
Sign-in with your pilot id or email,
or register
Callsign
Passwort

Schedule Details

Flight Number: OEO6131
Departure: Mombasa Moi International Airport (HKMO) at 03:10
Arrival: Munich Airport (EDDM) at 12:10

Weather Information
Getting current METAR information for HKMO 190800Z 18009KT 9999 BKN024 29/21 Q1017 NOSIG
Getting current METAR information for EDDM 190820Z 09007KT CAVOK 14/08 Q1020 NOSIG

Schedule Frequency

Route Map